MSC Claudia — 3FZA6 — position and weather

sailwx.info

Track history (hours):
 
Tides and Currents Weather Stations Pressure Air Temp Water Temp Dewpoint Dewpoint Depression Visibility Wind Speed Wind Dir Waves Ship Positions

MSC Claudia

Last reported at 2014-Jul-24 19:33 UTC. Time now 2014-Jul-28 18:31 UTC.
Position N 46°34' W 072°03'.

Length 292 m; draft 10.8 m.

Type: Ship (hazmat cat A). MMSI: 370606000.

Date/timePositionNaut miles runAvg speedWind from/ knotsBaromVisibWave heightAir tempDewpointWater temp
2014-Jul-24 19:33N 46°34' W 072°03'10 9.4
2014-Jul-24 18:32N 46°29' W 072°14'9 8.7
2014-Jul-24 17:33N 46°24' W 072°24'8 8.5
2014-Jul-24 16:33N 46°18' W 072°34'7 7.0
2014-Jul-24 15:33N 46°16' W 072°43'8 8.2
2014-Jul-24 14:33N 46°12' W 072°53'10 9.7
2014-Jul-24 13:30N 46°04' W 073°03'8 8.3
2014-Jul-24 12:33N 45°59' W 073°11'1010.2
2014-Jul-24 11:34N 45°49' W 073°18'9 9.1
2014-Jul-24 10:33N 45°42' W 073°26'8 8.1
2014-Jul-24 09:31N 45°34' W 073°31'0 0.1
2014-Jul-24 08:31N 45°35' W 073°31'0 0.0
2014-Jul-24 07:31N 45°35' W 073°31'0 0.0
2014-Jul-24 06:31N 45°35' W 073°31'0 0.0
2014-Jul-24 05:31N 45°35' W 073°31'0 0.0
2014-Jul-24 04:31N 45°35' W 073°31'0 0.0
2014-Jul-24 03:31N 45°35' W 073°31'0 0.0
2014-Jul-24 02:31N 45°35' W 073°31'0 0.0
2014-Jul-24 01:31N 45°35' W 073°31'0 0.0
2014-Jul-24 00:31N 45°35' W 073°31'0 0.0
2014-Jul-23 23:31N 45°35' W 073°31'0 0.0
2014-Jul-23 22:31N 45°35' W 073°31'0 0.0
2014-Jul-23 21:31N 45°35' W 073°31'0 0.0
2014-Jul-23 20:34N 45°35' W 073°31'0 0.0
2014-Jul-23 19:33N 45°35' W 073°31'0 0.0
2014-Jul-23 18:33N 45°35' W 073°31'0 0.0
2014-Jul-23 17:33N 45°35' W 073°31'0 0.0
2014-Jul-23 16:33N 45°35' W 073°31'0 0.0
2014-Jul-23 15:33N 45°35' W 073°31'0 0.0
2014-Jul-23 14:33N 45°35' W 073°31'0 0.0
2014-Jul-23 13:33N 45°35' W 073°31'0 0.0
2014-Jul-23 12:33N 45°35' W 073°31'0 0.0
2014-Jul-23 11:33N 45°35' W 073°31'0 0.0
2014-Jul-23 10:33N 45°35' W 073°31'0 0.0
2014-Jul-23 09:33N 45°35' W 073°31'0 0.0
2014-Jul-23 08:33N 45°35' W 073°31'0 0.0
2014-Jul-23 07:33N 45°35' W 073°31'0 0.0
2014-Jul-23 06:33N 45°35' W 073°31'0 0.0
2014-Jul-23 05:33N 45°35' W 073°31'0 0.0
2014-Jul-23 04:33N 45°35' W 073°31'0 0.0
2014-Jul-23 03:33N 45°35' W 073°31'0 0.0
2014-Jul-23 02:33N 45°35' W 073°31'0 0.0
2014-Jul-23 01:33N 45°34' W 073°31'0 0.0
2014-Jul-23 00:33N 45°35' W 073°31'0 0.0
2014-Jul-22 23:33N 45°35' W 073°31'0 0.0
2014-Jul-22 22:33N 45°35' W 073°31'0 0.0
2014-Jul-22 21:33N 45°35' W 073°31'0 0.0
2014-Jul-22 20:33N 45°35' W 073°31'0 0.0
2014-Jul-22 19:33N 45°35' W 073°31'0 0.0
2014-Jul-22 18:33N 45°35' W 073°31'0 0.0
2014-Jul-22 17:33N 45°35' W 073°31'0 0.0
2014-Jul-22 16:33N 45°35' W 073°31'0 0.0
2014-Jul-22 15:33N 45°35' W 073°31'0 0.0
2014-Jul-22 14:33N 45°35' W 073°31'0 0.0
2014-Jul-22 13:33N 45°35' W 073°31'0 0.0
2014-Jul-22 12:32N 45°35' W 073°31'0 0.0
2014-Jul-22 11:32N 45°35' W 073°31'0 0.0
2014-Jul-22 10:32N 45°35' W 073°31'0 0.0
2014-Jul-22 09:32N 45°35' W 073°31'0 0.0
2014-Jul-22 08:32N 45°35' W 073°31'0 0.0
2014-Jul-22 07:32N 45°35' W 073°31'0 0.0
2014-Jul-22 06:32N 45°35' W 073°31'0 0.0
2014-Jul-22 05:32N 45°35' W 073°31'0 0.0
2014-Jul-22 04:32N 45°35' W 073°31'0 0.0
2014-Jul-22 03:32N 45°34' W 073°31'0 0.0
2014-Jul-22 02:32N 45°35' W 073°31'0 0.0
2014-Jul-22 01:32N 45°35' W 073°31'0 0.0
2014-Jul-22 00:32N 45°35' W 073°31'0 0.0
2014-Jul-21 23:32N 45°35' W 073°31'0 0.0
2014-Jul-21 22:32N 45°35' W 073°31'0 0.0
2014-Jul-21 21:32N 45°35' W 073°31'0 0.0
2014-Jul-21 20:32N 45°35' W 073°31'0 0.0
2014-Jul-21 20:17N 45°35' W 073°31'0 0.0
2014-Jul-21 19:32N 45°35' W 073°31'0 0.2
2014-Jul-21 18:33N 45°35' W 073°30'6 6.3
2014-Jul-21 17:33N 45°41' W 073°27'8 7.8
2014-Jul-21 16:33N 45°47' W 073°21'41 9.2
2014-Jul-21 12:08N 46°16' W 072°39'  
2014-Jul-14 21:26N 38°21' W 011°02'1719.0
2014-Jul-14 20:33N 38°15' W 010°42'  
Track history (hours):
 
Tides and Currents Weather Stations Pressure Air Temp Water Temp Dewpoint Dewpoint Depression Visibility Wind Speed Wind Dir Waves Ship Positions

MSC Claudia

Last reported at 2014-Jul-24 19:33 UTC. Time now 2014-Jul-28 18:31 UTC.
Position N 46°34' W 072°03'.

Length 292 m; draft 10.8 m.

Type: Ship (hazmat cat A). MMSI: 370606000.

Date/timePositionNaut miles runAvg speedWind from/ knotsBaromVisibWave heightAir tempDewpointWater temp
2014-Jul-24 19:33N 46°34' W 072°03'10 9.4
2014-Jul-24 18:32N 46°29' W 072°14'9 8.7
2014-Jul-24 17:33N 46°24' W 072°24'8 8.5
2014-Jul-24 16:33N 46°18' W 072°34'7 7.0
2014-Jul-24 15:33N 46°16' W 072°43'8 8.2
2014-Jul-24 14:33N 46°12' W 072°53'10 9.7
2014-Jul-24 13:30N 46°04' W 073°03'8 8.3
2014-Jul-24 12:33N 45°59' W 073°11'1010.2
2014-Jul-24 11:34N 45°49' W 073°18'9 9.1
2014-Jul-24 10:33N 45°42' W 073°26'8 8.1
2014-Jul-24 09:31N 45°34' W 073°31'0 0.1
2014-Jul-24 08:31N 45°35' W 073°31'0 0.0
2014-Jul-24 07:31N 45°35' W 073°31'0 0.0
2014-Jul-24 06:31N 45°35' W 073°31'0 0.0
2014-Jul-24 05:31N 45°35' W 073°31'0 0.0
2014-Jul-24 04:31N 45°35' W 073°31'0 0.0
2014-Jul-24 03:31N 45°35' W 073°31'0 0.0
2014-Jul-24 02:31N 45°35' W 073°31'0 0.0
2014-Jul-24 01:31N 45°35' W 073°31'0 0.0
2014-Jul-24 00:31N 45°35' W 073°31'0 0.0
2014-Jul-23 23:31N 45°35' W 073°31'0 0.0
2014-Jul-23 22:31N 45°35' W 073°31'0 0.0
2014-Jul-23 21:31N 45°35' W 073°31'0 0.0
2014-Jul-23 20:34N 45°35' W 073°31'0 0.0
2014-Jul-23 19:33N 45°35' W 073°31'0 0.0
2014-Jul-23 18:33N 45°35' W 073°31'0 0.0
2014-Jul-23 17:33N 45°35' W 073°31'0 0.0
2014-Jul-23 16:33N 45°35' W 073°31'0 0.0
2014-Jul-23 15:33N 45°35' W 073°31'0 0.0
2014-Jul-23 14:33N 45°35' W 073°31'0 0.0
2014-Jul-23 13:33N 45°35' W 073°31'0 0.0
2014-Jul-23 12:33N 45°35' W 073°31'0 0.0
2014-Jul-23 11:33N 45°35' W 073°31'0 0.0
2014-Jul-23 10:33N 45°35' W 073°31'0 0.0
2014-Jul-23 09:33N 45°35' W 073°31'0 0.0
2014-Jul-23 08:33N 45°35' W 073°31'0 0.0
2014-Jul-23 07:33N 45°35' W 073°31'0 0.0
2014-Jul-23 06:33N 45°35' W 073°31'0 0.0
2014-Jul-23 05:33N 45°35' W 073°31'0 0.0
2014-Jul-23 04:33N 45°35' W 073°31'0 0.0
2014-Jul-23 03:33N 45°35' W 073°31'0 0.0
2014-Jul-23 02:33N 45°35' W 073°31'0 0.0
2014-Jul-23 01:33N 45°34' W 073°31'0 0.0
2014-Jul-23 00:33N 45°35' W 073°31'0 0.0
2014-Jul-22 23:33N 45°35' W 073°31'0 0.0
2014-Jul-22 22:33N 45°35' W 073°31'0 0.0
2014-Jul-22 21:33N 45°35' W 073°31'0 0.0
2014-Jul-22 20:33N 45°35' W 073°31'0 0.0
2014-Jul-22 19:33N 45°35' W 073°31'0 0.0
2014-Jul-22 18:33N 45°35' W 073°31'0 0.0
2014-Jul-22 17:33N 45°35' W 073°31'0 0.0
2014-Jul-22 16:33N 45°35' W 073°31'0 0.0
2014-Jul-22 15:33N 45°35' W 073°31'0 0.0
2014-Jul-22 14:33N 45°35' W 073°31'0 0.0
2014-Jul-22 13:33N 45°35' W 073°31'0 0.0
2014-Jul-22 12:32N 45°35' W 073°31'0 0.0
2014-Jul-22 11:32N 45°35' W 073°31'0 0.0
2014-Jul-22 10:32N 45°35' W 073°31'0 0.0
2014-Jul-22 09:32N 45°35' W 073°31'0 0.0
2014-Jul-22 08:32N 45°35' W 073°31'0 0.0
2014-Jul-22 07:32N 45°35' W 073°31'0 0.0
2014-Jul-22 06:32N 45°35' W 073°31'0 0.0
2014-Jul-22 05:32N 45°35' W 073°31'0 0.0
2014-Jul-22 04:32N 45°35' W 073°31'0 0.0
2014-Jul-22 03:32N 45°34' W 073°31'0 0.0
2014-Jul-22 02:32N 45°35' W 073°31'0 0.0
2014-Jul-22 01:32N 45°35' W 073°31'0 0.0
2014-Jul-22 00:32N 45°35' W 073°31'0 0.0
2014-Jul-21 23:32N 45°35' W 073°31'0 0.0
2014-Jul-21 22:32N 45°35' W 073°31'0 0.0
2014-Jul-21 21:32N 45°35' W 073°31'0 0.0
2014-Jul-21 20:32N 45°35' W 073°31'0 0.0
2014-Jul-21 20:17N 45°35' W 073°31'0 0.0
2014-Jul-21 19:32N 45°35' W 073°31'0 0.2
2014-Jul-21 18:33N 45°35' W 073°30'6 6.3
2014-Jul-21 17:33N 45°41' W 073°27'8 7.8
2014-Jul-21 16:33N 45°47' W 073°21'41 9.2
2014-Jul-21 12:08N 46°16' W 072°39'  
2014-Jul-14 21:26N 38°21' W 011°02'1719.0
2014-Jul-14 20:33N 38°15' W 010°42'  

Dump ship's entire track history